sensor_id;sensor_type;location;lat;lon;timestamp;pressure;altitude;pressure_sealevel;temperature;humidity
62655;BME280;48717;55.556;37.816;2023-04-28T00:02:21;98904.72;;;12.60;64.49
62655;BME280;48717;55.556;37.816;2023-04-28T00:04:49;98902.88;;;12.62;64.99
62655;BME280;48717;55.556;37.816;2023-04-28T00:07:16;98904.66;;;12.63;64.44
62655;BME280;48717;55.556;37.816;2023-04-28T00:09:43;98906.50;;;12.58;64.52
62655;BME280;48717;55.556;37.816;2023-04-28T00:12:10;98905.47;;;12.65;64.31
62655;BME280;48717;55.556;37.816;2023-04-28T00:14:37;98886.31;;;12.55;64.45
62655;BME280;48717;55.556;37.816;2023-04-28T00:17:04;98896.94;;;12.53;64.24
62655;BME280;48717;55.556;37.816;2023-04-28T00:19:31;98886.53;;;12.46;64.96
62655;BME280;48717;55.556;37.816;2023-04-28T00:21:58;98889.84;;;12.54;64.62
62655;BME280;48717;55.556;37.816;2023-04-28T00:24:25;98888.06;;;12.56;64.47
62655;BME280;48717;55.556;37.816;2023-04-28T00:26:53;98876.75;;;12.49;64.60
62655;BME280;48717;55.556;37.816;2023-04-28T00:29:20;98866.25;;;12.46;64.64
62655;BME280;48717;55.556;37.816;2023-04-28T00:31:47;98884.69;;;12.49;64.90
62655;BME280;48717;55.556;37.816;2023-04-28T00:34:14;98875.22;;;12.39;65.42
62655;BME280;48717;55.556;37.816;2023-04-28T00:36:41;98878.69;;;12.43;65.79
62655;BME280;48717;55.556;37.816;2023-04-28T00:39:08;98864.19;;;12.21;65.92
62655;BME280;48717;55.556;37.816;2023-04-28T00:41:36;98859.88;;;12.17;66.08
62655;BME280;48717;55.556;37.816;2023-04-28T00:44:03;98876.38;;;12.27;65.59
62655;BME280;48717;55.556;37.816;2023-04-28T00:46:31;98859.59;;;12.30;66.31
62655;BME280;48717;55.556;37.816;2023-04-28T00:48:59;98865.06;;;12.22;65.49
62655;BME280;48717;55.556;37.816;2023-04-28T00:51:27;98830.22;;;12.02;65.66
62655;BME280;48717;55.556;37.816;2023-04-28T00:53:55;98872.06;;;12.23;66.01
62655;BME280;48717;55.556;37.816;2023-04-28T00:56:22;98879.28;;;12.16;66.45
62655;BME280;48717;55.556;37.816;2023-04-28T00:58:50;98871.50;;;12.10;66.69
62655;BME280;48717;55.556;37.816;2023-04-28T01:01:17;98880.25;;;12.12;66.79
62655;BME280;48717;55.556;37.816;2023-04-28T01:03:46;98880.38;;;12.07;67.15
62655;BME280;48717;55.556;37.816;2023-04-28T01:06:15;98883.06;;;12.02;67.46
62655;BME280;48717;55.556;37.816;2023-04-28T01:08:47;98871.81;;;11.93;67.63
62655;BME280;48717;55.556;37.816;2023-04-28T01:11:16;98891.00;;;12.02;67.41
62655;BME280;48717;55.556;37.816;2023-04-28T01:14:05;98897.31;;;11.95;67.55
62655;BME280;48717;55.556;37.816;2023-04-28T01:16:35;98901.16;;;11.80;68.98
62655;BME280;48717;55.556;37.816;2023-04-28T01:19:13;98899.63;;;11.68;69.22
62655;BME280;48717;55.556;37.816;2023-04-28T01:21:43;98896.22;;;11.63;69.13
62655;BME280;48717;55.556;37.816;2023-04-28T01:24:21;98889.19;;;11.62;69.61
62655;BME280;48717;55.556;37.816;2023-04-28T01:26:49;98895.38;;;11.61;69.89
62655;BME280;48717;55.556;37.816;2023-04-28T01:29:16;98895.44;;;11.58;69.91
62655;BME280;48717;55.556;37.816;2023-04-28T01:31:43;98897.13;;;11.62;70.07
62655;BME280;48717;55.556;37.816;2023-04-28T01:34:10;98903.22;;;11.64;70.28
62655;BME280;48717;55.556;37.816;2023-04-28T01:36:38;98887.56;;;11.55;70.48
62655;BME280;48717;55.556;37.816;2023-04-28T01:39:05;98893.69;;;11.58;70.17
62655;BME280;48717;55.556;37.816;2023-04-28T01:41:32;98892.66;;;11.64;70.85
62655;BME280;48717;55.556;37.816;2023-04-28T01:44:03;98885.69;;;11.60;70.21
62655;BME280;48717;55.556;37.816;2023-04-28T01:46:32;98887.53;;;11.58;70.53
62655;BME280;48717;55.556;37.816;2023-04-28T01:49:00;98888.41;;;11.58;71.35
62655;BME280;48717;55.556;37.816;2023-04-28T01:51:27;98893.59;;;11.61;70.93
62655;BME280;48717;55.556;37.816;2023-04-28T01:53:55;98882.38;;;11.52;71.18
62655;BME280;48717;55.556;37.816;2023-04-28T01:56:23;98888.50;;;11.52;71.08
62655;BME280;48717;55.556;37.816;2023-04-28T01:58:52;98878.84;;;11.51;71.67
62655;BME280;48717;55.556;37.816;2023-04-28T02:01:19;98866.53;;;11.52;71.08
62655;BME280;48717;55.556;37.816;2023-04-28T02:03:47;98857.94;;;11.40;71.54
62655;BME280;48717;55.556;37.816;2023-04-28T02:06:16;98877.09;;;11.52;71.10
62655;BME280;48717;55.556;37.816;2023-04-28T02:08:43;98871.88;;;11.48;71.59
62655;BME280;48717;55.556;37.816;2023-04-28T02:11:12;98873.66;;;11.46;71.56
62655;BME280;48717;55.556;37.816;2023-04-28T02:13:40;98885.06;;;11.48;71.52
62655;BME280;48717;55.556;37.816;2023-04-28T02:16:08;98871.88;;;11.48;71.92
62655;BME280;48717;55.556;37.816;2023-04-28T02:18:36;98864.03;;;11.44;72.01
62655;BME280;48717;55.556;37.816;2023-04-28T02:21:12;98866.53;;;11.52;71.70
62655;BME280;48717;55.556;37.816;2023-04-28T02:23:39;98883.91;;;11.62;71.32
62655;BME280;48717;55.556;37.816;2023-04-28T02:26:06;98884.09;;;11.53;71.77
62655;BME280;48717;55.556;37.816;2023-04-28T02:28:34;98902.41;;;11.62;71.85
62655;BME280;48717;55.556;37.816;2023-04-28T02:31:09;98903.53;;;11.48;71.78
62655;BME280;48717;55.556;37.816;2023-04-28T02:33:37;98897.38;;;11.48;72.84
62655;BME280;48717;55.556;37.816;2023-04-28T02:36:05;98896.72;;;11.38;72.93
62655;BME280;48717;55.556;37.816;2023-04-28T02:38:33;98898.50;;;11.36;73.22
62655;BME280;48717;55.556;37.816;2023-04-28T02:41:02;98889.81;;;11.31;73.43
62655;BME280;48717;55.556;37.816;2023-04-28T02:43:31;98866.31;;;11.17;72.93
62655;BME280;48717;55.556;37.816;2023-04-28T02:45:59;98907.31;;;11.35;73.62
62655;BME280;48717;55.556;37.816;2023-04-28T02:48:26;98912.59;;;11.35;73.58
62655;BME280;48717;55.556;37.816;2023-04-28T02:50:54;98902.03;;;11.36;73.73
62655;BME280;48717;55.556;37.816;2023-04-28T02:53:21;98900.97;;;11.44;73.46
62655;BME280;48717;55.556;37.816;2023-04-28T02:55:49;98908.88;;;11.45;73.34
62655;BME280;48717;55.556;37.816;2023-04-28T02:58:16;98902.47;;;11.57;72.83
62655;BME280;48717;55.556;37.816;2023-04-28T03:00:45;98910.38;;;11.59;72.74
62655;BME280;48717;55.556;37.816;2023-04-28T03:03:14;98899.75;;;11.62;72.54
62655;BME280;48717;55.556;37.816;2023-04-28T03:05:41;98903.31;;;11.61;72.52
62655;BME280;48717;55.556;37.816;2023-04-28T03:08:09;98897.53;;;11.42;72.73
62655;BME280;48717;55.556;37.816;2023-04-28T03:10:36;98905.63;;;11.31;74.01
62655;BME280;48717;55.556;37.816;2023-04-28T03:13:04;98916.84;;;11.42;74.13
62655;BME280;48717;55.556;37.816;2023-04-28T03:15:32;98921.28;;;11.40;73.75
62655;BME280;48717;55.556;37.816;2023-04-28T03:17:59;98924.09;;;11.32;74.60
62655;BME280;48717;55.556;37.816;2023-04-28T03:20:28;98915.22;;;11.36;74.41
62655;BME280;48717;55.556;37.816;2023-04-28T03:22:55;98929.91;;;11.52;73.49
62655;BME280;48717;55.556;37.816;2023-04-28T03:25:22;98915.88;;;11.46;74.12
62655;BME280;48717;55.556;37.816;2023-04-28T03:27:51;98928.06;;;11.54;74.24
62655;BME280;48717;55.556;37.816;2023-04-28T03:30:18;98924.63;;;11.52;74.11
62655;BME280;48717;55.556;37.816;2023-04-28T03:32:45;98934.09;;;11.60;74.30
62655;BME280;48717;55.556;37.816;2023-04-28T03:35:14;98908.72;;;11.53;73.60
62655;BME280;48717;55.556;37.816;2023-04-28T03:37:42;98922.56;;;11.66;73.43
62655;BME280;48717;55.556;37.816;2023-04-28T03:40:10;98927.59;;;11.79;74.23
62655;BME280;48717;55.556;37.816;2023-04-28T03:43:03;98923.25;;;11.76;73.28
62655;BME280;48717;55.556;37.816;2023-04-28T03:45:39;98935.44;;;11.82;73.28
62655;BME280;48717;55.556;37.816;2023-04-28T03:48:07;98924.03;;;11.81;73.07
62655;BME280;48717;55.556;37.816;2023-04-28T03:50:35;98935.25;;;11.91;73.42
62655;BME280;48717;55.556;37.816;2023-04-28T03:53:02;98932.50;;;11.97;73.71
62655;BME280;48717;55.556;37.816;2023-04-28T03:55:31;98931.41;;;12.08;72.77
62655;BME280;48717;55.556;37.816;2023-04-28T03:57:58;98933.81;;;12.20;72.31
62655;BME280;48717;55.556;37.816;2023-04-28T04:00:26;98936.13;;;12.36;71.69
62655;BME280;48717;55.556;37.816;2023-04-28T04:02:53;98912.19;;;12.42;71.15
62655;BME280;48717;55.556;37.816;2023-04-28T04:05:21;98919.84;;;12.53;71.23
62655;BME280;48717;55.556;37.816;2023-04-28T04:07:48;98926.84;;;12.56;70.93
62655;BME280;48717;55.556;37.816;2023-04-28T04:10:15;98930.06;;;12.69;70.63
62655;BME280;48717;55.556;37.816;2023-04-28T04:12:43;98913.34;;;12.68;70.14
62655;BME280;48717;55.556;37.816;2023-04-28T04:15:11;98942.28;;;12.74;70.37
62655;BME280;48717;55.556;37.816;2023-04-28T04:17:39;98948.25;;;12.83;69.80
62655;BME280;48717;55.556;37.816;2023-04-28T04:20:07;98940.00;;;12.95;70.03
62655;BME280;48717;55.556;37.816;2023-04-28T04:22:34;98945.25;;;12.98;69.16
62655;BME280;48717;55.556;37.816;2023-04-28T04:25:02;98938.16;;;12.99;69.26
62655;BME280;48717;55.556;37.816;2023-04-28T04:27:30;98935.47;;;13.00;69.39
62655;BME280;48717;55.556;37.816;2023-04-28T04:29:57;98940.81;;;12.97;69.63
62655;BME280;48717;55.556;37.816;2023-04-28T04:32:25;98964.25;;;13.14;69.50
62655;BME280;48717;55.556;37.816;2023-04-28T04:34:53;98966.69;;;13.22;69.21
62655;BME280;48717;55.556;37.816;2023-04-28T04:37:20;98956.41;;;13.10;69.28
62655;BME280;48717;55.556;37.816;2023-04-28T04:39:54;98967.97;;;13.05;69.73
62655;BME280;48717;55.556;37.816;2023-04-28T04:42:21;98965.53;;;12.98;69.96
62655;BME280;48717;55.556;37.816;2023-04-28T04:47:56;98974.00;;;13.11;70.19
62655;BME280;48717;55.556;37.816;2023-04-28T04:50:24;98970.47;;;13.12;70.68
62655;BME280;48717;55.556;37.816;2023-04-28T04:52:51;98970.47;;;13.12;70.20
62655;BME280;48717;55.556;37.816;2023-04-28T04:55:20;98960.88;;;13.08;70.24
62655;BME280;48717;55.556;37.816;2023-04-28T04:57:47;98970.38;;;13.15;70.19
62655;BME280;48717;55.556;37.816;2023-04-28T05:00:43;98971.34;;;13.12;70.85
62655;BME280;48717;55.556;37.816;2023-04-28T05:03:11;98961.88;;;13.03;70.65
62655;BME280;48717;55.556;37.816;2023-04-28T05:05:40;98980.25;;;13.08;71.32
62655;BME280;48717;55.556;37.816;2023-04-28T05:08:14;98982.81;;;13.13;70.78
62655;BME280;48717;55.556;37.816;2023-04-28T05:10:41;98956.28;;;13.16;70.82
62655;BME280;48717;55.556;37.816;2023-04-28T05:13:09;98932.44;;;13.16;70.82
62655;BME280;48717;55.556;37.816;2023-04-28T05:15:36;98968.84;;;13.41;69.65
62655;BME280;48717;55.556;37.816;2023-04-28T05:18:22;98971.34;;;13.47;69.74
62655;BME280;48717;55.556;37.816;2023-04-28T05:20:50;98955.53;;;13.44;69.30
62655;BME280;48717;55.556;37.816;2023-04-28T05:23:18;98962.28;;;13.57;68.96
62655;BME280;48717;55.556;37.816;2023-04-28T05:25:47;98963.50;;;13.77;68.68
62655;BME280;48717;55.556;37.816;2023-04-28T05:28:14;98964.03;;;13.90;67.76
62655;BME280;48717;55.556;37.816;2023-04-28T05:30:43;98956.13;;;13.89;67.91
62655;BME280;48717;55.556;37.816;2023-04-28T05:33:12;98973.22;;;14.08;66.91
62655;BME280;48717;55.556;37.816;2023-04-28T05:35:41;98964.25;;;14.13;66.73
62655;BME280;48717;55.556;37.816;2023-04-28T05:38:08;98963.91;;;14.25;66.35
62655;BME280;48717;55.556;37.816;2023-04-28T05:40:36;98969.47;;;14.46;66.31
62655;BME280;48717;55.556;37.816;2023-04-28T05:43:03;98963.53;;;14.66;65.63
62655;BME280;48717;55.556;37.816;2023-04-28T05:45:30;98949.56;;;14.90;65.08
62655;BME280;48717;55.556;37.816;2023-04-28T05:47:58;98951.63;;;15.08;64.24
62655;BME280;48717;55.556;37.816;2023-04-28T05:50:26;98963.34;;;15.28;63.23
62655;BME280;48717;55.556;37.816;2023-04-28T05:52:53;98950.19;;;15.25;63.24
62655;BME280;48717;55.556;37.816;2023-04-28T05:55:20;98971.84;;;15.12;63.52
62655;BME280;48717;55.556;37.816;2023-04-28T05:57:48;98962.69;;;14.94;65.08
62655;BME280;48717;55.556;37.816;2023-04-28T06:00:20;98962.38;;;15.04;64.93
62655;BME280;48717;55.556;37.816;2023-04-28T06:02:50;98945.28;;;15.12;64.32
62655;BME280;48717;55.556;37.816;2023-04-28T06:05:19;98953.44;;;15.33;63.74
62655;BME280;48717;55.556;37.816;2023-04-28T06:07:50;98956.66;;;15.42;63.38
62655;BME280;48717;55.556;37.816;2023-04-28T06:10:21;98946.97;;;15.40;63.09
62655;BME280;48717;55.556;37.816;2023-04-28T06:12:49;98970.56;;;15.50;63.43
62655;BME280;48717;55.556;37.816;2023-04-28T06:15:16;98956.25;;;15.54;63.09
62655;BME280;48717;55.556;37.816;2023-04-28T06:17:43;98940.94;;;15.61;63.01
62655;BME280;48717;55.556;37.816;2023-04-28T06:20:11;98943.13;;;15.75;61.82
62655;BME280;48717;55.556;37.816;2023-04-28T06:22:40;98965.56;;;15.91;62.25
62655;BME280;48717;55.556;37.816;2023-04-28T06:25:07;98978.97;;;15.88;62.37
62655;BME280;48717;55.556;37.816;2023-04-28T06:27:42;98980.75;;;15.88;62.30
62655;BME280;48717;55.556;37.816;2023-04-28T06:30:12;98968.88;;;15.73;62.69
62655;BME280;48717;55.556;37.816;2023-04-28T06:32:43;98971.44;;;15.50;64.14
62655;BME280;48717;55.556;37.816;2023-04-28T06:35:10;98961.50;;;15.30;66.02
62655;BME280;48717;55.556;37.816;2023-04-28T06:37:37;98973.16;;;15.26;66.37
62655;BME280;48717;55.556;37.816;2023-04-28T06:40:05;98994.13;;;15.34;66.85
62655;BME280;48717;55.556;37.816;2023-04-28T06:42:34;98983.25;;;15.14;67.15
62655;BME280;48717;55.556;37.816;2023-04-28T06:45:10;98964.44;;;14.95;68.80
62655;BME280;48717;55.556;37.816;2023-04-28T06:47:37;98992.66;;;14.98;69.22
62655;BME280;48717;55.556;37.816;2023-04-28T06:50:08;98996.69;;;14.83;70.38
62655;BME280;48717;55.556;37.816;2023-04-28T06:52:36;98994.81;;;14.85;71.63
62655;BME280;48717;55.556;37.816;2023-04-28T06:55:07;98982.06;;;14.39;71.11
62655;BME280;48717;55.556;37.816;2023-04-28T06:57:35;99003.88;;;14.49;72.14
62655;BME280;48717;55.556;37.816;2023-04-28T07:00:05;98987.81;;;14.23;73.28
62655;BME280;48717;55.556;37.816;2023-04-28T07:02:33;99000.91;;;14.30;74.61
62655;BME280;48717;55.556;37.816;2023-04-28T07:05:01;98971.31;;;14.14;75.05
62655;BME280;48717;55.556;37.816;2023-04-28T07:07:31;98983.94;;;14.05;75.94
62655;BME280;48717;55.556;37.816;2023-04-28T07:09:58;98989.31;;;14.02;76.68
62655;BME280;48717;55.556;37.816;2023-04-28T07:12:27;99001.56;;;14.06;76.64
62655;BME280;48717;55.556;37.816;2023-04-28T07:14:54;98994.59;;;14.02;76.88
62655;BME280;48717;55.556;37.816;2023-04-28T07:17:22;98990.16;;;14.04;75.53
62655;BME280;48717;55.556;37.816;2023-04-28T07:19:49;98965.41;;;14.04;75.08
62655;BME280;48717;55.556;37.816;2023-04-28T07:22:17;98999.28;;;14.24;75.65
62655;BME280;48717;55.556;37.816;2023-04-28T07:24:43;99007.13;;;14.29;74.52
62655;BME280;48717;55.556;37.816;2023-04-28T07:27:11;99007.13;;;14.29;74.72
62655;BME280;48717;55.556;37.816;2023-04-28T07:29:39;99007.88;;;14.32;75.68
62655;BME280;48717;55.556;37.816;2023-04-28T07:32:06;99006.16;;;14.31;75.54
62655;BME280;48717;55.556;37.816;2023-04-28T07:34:36;99000.75;;;14.34;76.15
62655;BME280;48717;55.556;37.816;2023-04-28T07:37:04;99007.03;;;14.30;76.00
62655;BME280;48717;55.556;37.816;2023-04-28T07:39:32;98992.59;;;14.42;75.58
62655;BME280;48717;55.556;37.816;2023-04-28T07:42:01;98999.72;;;14.69;75.07
62655;BME280;48717;55.556;37.816;2023-04-28T07:44:30;98984.03;;;14.91;74.76
62655;BME280;48717;55.556;37.816;2023-04-28T07:47:01;98972.91;;;15.07;72.86
62655;BME280;48717;55.556;37.816;2023-04-28T07:49:28;98984.75;;;15.23;72.41
62655;BME280;48717;55.556;37.816;2023-04-28T07:51:56;99005.03;;;15.26;71.23
62655;BME280;48717;55.556;37.816;2023-04-28T07:54:23;98978.31;;;15.04;71.84
62655;BME280;48717;55.556;37.816;2023-04-28T07:56:50;98992.75;;;15.22;70.86
62655;BME280;48717;55.556;37.816;2023-04-28T07:59:18;98996.53;;;15.14;71.52
62655;BME280;48717;55.556;37.816;2023-04-28T08:01:45;98979.09;;;15.07;70.58
62655;BME280;48717;55.556;37.816;2023-04-28T08:04:12;98995.25;;;14.99;71.26
62655;BME280;48717;55.556;37.816;2023-04-28T08:06:40;98988.31;;;14.95;70.99
62655;BME280;48717;55.556;37.816;2023-04-28T08:09:07;98996.84;;;15.05;71.01
62655;BME280;48717;55.556;37.816;2023-04-28T08:11:35;99001.66;;;15.21;70.20
62655;BME280;48717;55.556;37.816;2023-04-28T08:14:02;98997.13;;;15.50;69.61
62655;BME280;48717;55.556;37.816;2023-04-28T08:16:30;98993.78;;;15.70;68.50
62655;BME280;48717;55.556;37.816;2023-04-28T08:18:58;98979.78;;;15.65;68.72
62655;BME280;48717;55.556;37.816;2023-04-28T08:21:26;98989.66;;;15.61;68.12
62655;BME280;48717;55.556;37.816;2023-04-28T08:23:54;99017.31;;;15.56;68.25
62655;BME280;48717;55.556;37.816;2023-04-28T08:26:21;99001.69;;;15.46;68.88
62655;BME280;48717;55.556;37.816;2023-04-28T08:28:51;98993.94;;;15.40;69.40
62655;BME280;48717;55.556;37.816;2023-04-28T08:31:19;99001.03;;;15.39;69.28
62655;BME280;48717;55.556;37.816;2023-04-28T08:33:46;98983.47;;;15.35;69.57
62655;BME280;48717;55.556;37.816;2023-04-28T08:36:17;98995.81;;;15.36;70.10
62655;BME280;48717;55.556;37.816;2023-04-28T08:38:44;98990.72;;;15.30;70.37
62655;BME280;48717;55.556;37.816;2023-04-28T08:41:14;98952.72;;;15.01;71.19
62655;BME280;48717;55.556;37.816;2023-04-28T08:43:42;98995.06;;;15.33;71.07
62655;BME280;48717;55.556;37.816;2023-04-28T08:46:10;99005.34;;;15.17;71.46
62655;BME280;48717;55.556;37.816;2023-04-28T08:48:41;99000.03;;;15.17;72.29
62655;BME280;48717;55.556;37.816;2023-04-28T08:51:15;99003.59;;;15.16;72.39
62655;BME280;48717;55.556;37.816;2023-04-28T08:53:44;98996.22;;;15.24;74.21
62655;BME280;48717;55.556;37.816;2023-04-28T08:56:35;98980.72;;;15.11;74.42
62655;BME280;48717;55.556;37.816;2023-04-28T08:59:03;98985.47;;;15.01;75.26
62655;BME280;48717;55.556;37.816;2023-04-28T09:01:31;98960.28;;;14.86;76.07
62655;BME280;48717;55.556;37.816;2023-04-28T09:04:01;99004.28;;;14.94;77.26
62655;BME280;48717;55.556;37.816;2023-04-28T09:06:37;98999.47;;;14.78;77.94
62655;BME280;48717;55.556;37.816;2023-04-28T09:09:37;99006.50;;;14.79;77.95
62655;BME280;48717;55.556;37.816;2023-04-28T09:12:05;98995.81;;;14.82;78.66
62655;BME280;48717;55.556;37.816;2023-04-28T09:14:35;99003.38;;;14.65;78.32
62655;BME280;48717;55.556;37.816;2023-04-28T09:17:09;99002.47;;;14.66;78.97
62655;BME280;48717;55.556;37.816;2023-04-28T09:19:39;98991.22;;;14.57;78.79
62655;BME280;48717;55.556;37.816;2023-04-28T09:22:08;99002.25;;;14.73;79.05
62655;BME280;48717;55.556;37.816;2023-04-28T09:24:52;98985.53;;;14.70;79.60
62655;BME280;48717;55.556;37.816;2023-04-28T09:27:27;98994.16;;;14.78;79.02
62655;BME280;48717;55.556;37.816;2023-04-28T09:29:55;98995.84;;;14.81;79.66
62655;BME280;48717;55.556;37.816;2023-04-28T09:32:22;98997.66;;;14.80;79.65
62655;BME280;48717;55.556;37.816;2023-04-28T09:34:53;98991.03;;;14.64;78.96
62655;BME280;48717;55.556;37.816;2023-04-28T09:37:25;99008.97;;;14.55;79.83
62655;BME280;48717;55.556;37.816;2023-04-28T09:39:54;98997.47;;;14.55;80.21
62655;BME280;48717;55.556;37.816;2023-04-28T09:42:41;98982.66;;;14.49;80.75
62655;BME280;48717;55.556;37.816;2023-04-28T09:45:10;98979.06;;;14.50;79.89
62655;BME280;48717;55.556;37.816;2023-04-28T09:47:47;98990.63;;;14.49;79.98
62655;BME280;48717;55.556;37.816;2023-04-28T09:50:16;98998.97;;;14.65;80.99
62655;BME280;48717;55.556;37.816;2023-04-28T09:52:54;98999.72;;;14.69;79.17
62655;BME280;48717;55.556;37.816;2023-04-28T09:55:24;99000.69;;;14.66;79.35
62655;BME280;48717;55.556;37.816;2023-04-28T09:57:53;99000.00;;;14.59;80.56
62655;BME280;48717;55.556;37.816;2023-04-28T10:00:22;98967.53;;;14.51;79.14
62655;BME280;48717;55.556;37.816;2023-04-28T10:02:50;98979.16;;;14.47;79.50
62655;BME280;48717;55.556;37.816;2023-04-28T10:05:20;99005.91;;;14.69;78.51
62655;BME280;48717;55.556;37.816;2023-04-28T10:07:49;99008.53;;;14.71;79.79
62655;BME280;48717;55.556;37.816;2023-04-28T10:10:17;98979.47;;;14.66;78.35
62655;BME280;48717;55.556;37.816;2023-04-28T10:12:45;99023.22;;;15.11;77.54
62655;BME280;48717;55.556;37.816;2023-04-28T10:15:13;98986.69;;;15.18;76.02
62655;BME280;48717;55.556;37.816;2023-04-28T10:17:40;99005.59;;;15.61;74.70
62655;BME280;48717;55.556;37.816;2023-04-28T10:20:07;99007.56;;;15.82;73.89
62655;BME280;48717;55.556;37.816;2023-04-28T10:22:59;99012.59;;;15.89;72.67
62655;BME280;48717;55.556;37.816;2023-04-28T10:25:35;99011.50;;;15.97;72.25
62655;BME280;48717;55.556;37.816;2023-04-28T10:28:07;99016.19;;;16.14;71.16
62655;BME280;48717;55.556;37.816;2023-04-28T10:30:34;99010.41;;;16.26;70.45
62655;BME280;48717;55.556;37.816;2023-04-28T10:38:13;99002.81;;;16.39;69.09
62655;BME280;48717;55.556;37.816;2023-04-28T10:40:42;99009.81;;;16.18;69.64
62655;BME280;48717;55.556;37.816;2023-04-28T10:43:12;99015.19;;;16.16;70.41
62655;BME280;48717;55.556;37.816;2023-04-28T11:08:57;99024.91;;;14.23;86.45
62655;BME280;48717;55.556;37.816;2023-04-28T11:11:27;99014.22;;;13.95;89.79
62655;BME280;48717;55.556;37.816;2023-04-28T11:17:08;99030.50;;;15.32;86.48
62655;BME280;48717;55.556;37.816;2023-04-28T11:19:38;99030.34;;;15.09;88.30
62655;BME280;48717;55.556;37.816;2023-04-28T11:22:25;99002.41;;;14.97;88.67
62655;BME280;48717;55.556;37.816;2023-04-28T11:24:57;99032.88;;;14.85;87.10
62655;BME280;48717;55.556;37.816;2023-04-28T11:27:32;99011.38;;;14.63;89.36
62655;BME280;48717;55.556;37.816;2023-04-28T11:29:59;99014.16;;;14.60;87.76
62655;BME280;48717;55.556;37.816;2023-04-28T11:32:33;99020.94;;;14.69;88.26
62655;BME280;48717;55.556;37.816;2023-04-28T11:35:02;99016.81;;;15.17;88.84
62655;BME280;48717;55.556;37.816;2023-04-28T11:37:35;99008.81;;;14.90;87.98
62655;BME280;48717;55.556;37.816;2023-04-28T11:40:12;99016.03;;;15.40;87.41
62655;BME280;48717;55.556;37.816;2023-04-28T11:42:47;99026.69;;;15.66;86.41
62655;BME280;48717;55.556;37.816;2023-04-28T11:45:14;99015.59;;;16.05;83.29
62655;BME280;48717;55.556;37.816;2023-04-28T11:47:41;99017.53;;;15.75;83.99
62655;BME280;48717;55.556;37.816;2023-04-28T11:50:09;98993.56;;;16.02;84.48
62655;BME280;48717;55.556;37.816;2023-04-28T11:52:47;99010.34;;;16.28;81.77
62655;BME280;48717;55.556;37.816;2023-04-28T11:55:16;98997.75;;;16.33;80.41
62655;BME280;48717;55.556;37.816;2023-04-28T11:57:43;99004.50;;;16.18;80.88
62655;BME280;48717;55.556;37.816;2023-04-28T12:00:12;99005.94;;;16.03;81.15
62655;BME280;48717;55.556;37.816;2023-04-28T12:02:40;99010.47;;;16.25;80.59
62655;BME280;48717;55.556;37.816;2023-04-28T12:05:08;98999.34;;;16.37;79.51
62655;BME280;48717;55.556;37.816;2023-04-28T12:07:41;98999.28;;;16.15;81.72
62655;BME280;48717;55.556;37.816;2023-04-28T12:10:13;98998.44;;;16.14;80.68
62655;BME280;48717;55.556;37.816;2023-04-28T12:12:46;98996.13;;;16.05;80.67
62655;BME280;48717;55.556;37.816;2023-04-28T12:15:20;98997.84;;;16.06;81.29
62655;BME280;48717;55.556;37.816;2023-04-28T12:17:49;98986.84;;;15.91;83.60
62655;BME280;48717;55.556;37.816;2023-04-28T12:20:36;98984.38;;;15.85;80.22
62655;BME280;48717;55.556;37.816;2023-04-28T12:23:05;98971.84;;;15.63;79.13
62655;BME280;48717;55.556;37.816;2023-04-28T12:25:42;98966.44;;;15.66;80.64
62655;BME280;48717;55.556;37.816;2023-04-28T12:28:10;98970.34;;;15.82;80.23
62655;BME280;48717;55.556;37.816;2023-04-28T12:30:37;98988.19;;;16.03;79.59
62655;BME280;48717;55.556;37.816;2023-04-28T12:33:05;98974.03;;;16.03;78.73
62655;BME280;48717;55.556;37.816;2023-04-28T12:35:47;98988.25;;;16.26;76.97
62655;BME280;48717;55.556;37.816;2023-04-28T12:38:15;98989.50;;;16.39;75.74
62655;BME280;48717;55.556;37.816;2023-04-28T12:40:42;98982.31;;;16.43;75.78
62655;BME280;48717;55.556;37.816;2023-04-28T12:43:09;98986.47;;;16.26;74.22
62655;BME280;48717;55.556;37.816;2023-04-28T12:45:36;98976.34;;;16.12;73.35
62655;BME280;48717;55.556;37.816;2023-04-28T12:48:04;98973.59;;;15.90;72.97
62655;BME280;48717;55.556;37.816;2023-04-28T12:50:32;98963.31;;;15.81;73.23
62655;BME280;48717;55.556;37.816;2023-04-28T12:52:59;98985.53;;;15.78;73.99
62655;BME280;48717;55.556;37.816;2023-04-28T12:55:28;98989.75;;;15.58;74.12
62655;BME280;48717;55.556;37.816;2023-04-28T12:57:55;98976.75;;;15.50;76.27
62655;BME280;48717;55.556;37.816;2023-04-28T13:00:22;98989.44;;;15.42;76.85
62655;BME280;48717;55.556;37.816;2023-04-28T13:02:50;98985.50;;;15.27;77.27
62655;BME280;48717;55.556;37.816;2023-04-28T13:05:19;98993.06;;;15.12;79.05
62655;BME280;48717;55.556;37.816;2023-04-28T13:07:46;98992.31;;;15.09;79.55
62655;BME280;48717;55.556;37.816;2023-04-28T13:10:15;98960.25;;;14.58;82.27
62655;BME280;48717;55.556;37.816;2023-04-28T13:12:45;98985.75;;;14.64;82.51
62655;BME280;48717;55.556;37.816;2023-04-28T13:15:12;98989.59;;;14.53;83.89
62655;BME280;48717;55.556;37.816;2023-04-28T13:17:39;98989.78;;;14.47;84.11
62655;BME280;48717;55.556;37.816;2023-04-28T13:20:06;98997.09;;;14.39;84.52
62655;BME280;48717;55.556;37.816;2023-04-28T13:22:34;98989.00;;;14.43;86.64
62655;BME280;48717;55.556;37.816;2023-04-28T13:25:01;99004.13;;;14.40;87.25
62655;BME280;48717;55.556;37.816;2023-04-28T13:27:30;98994.44;;;14.39;87.18
62655;BME280;48717;55.556;37.816;2023-04-28T13:29:59;98979.31;;;14.42;83.66
62655;BME280;48717;55.556;37.816;2023-04-28T13:32:26;98993.50;;;14.40;83.87
62655;BME280;48717;55.556;37.816;2023-04-28T13:34:53;99013.88;;;14.39;82.56
62655;BME280;48717;55.556;37.816;2023-04-28T13:37:21;99005.97;;;14.38;83.15